createdAt,value
2018-03-23T00:00:32.453Z,12.87
2018-03-23T00:05:23.333Z,13.83
2018-03-23T00:10:14.218Z,13.27
2018-03-23T00:15:05.853Z,12.97
2018-03-23T00:19:56.789Z,12.13
2018-03-23T00:24:48.424Z,11.97
2018-03-23T00:29:39.309Z,12.30
2018-03-23T00:34:30.197Z,13.47
2018-03-23T00:39:21.831Z,11.57
2018-03-23T00:44:12.709Z,10.37
2018-03-23T00:49:03.608Z,12.63
2018-03-23T00:53:55.224Z,9.67
2018-03-23T00:58:46.125Z,10.63
2018-03-23T01:03:37.019Z,11.50
2018-03-23T01:08:28.668Z,11.40
2018-03-23T01:13:19.560Z,12.80
2018-03-23T01:18:10.464Z,10.47
2018-03-23T01:23:01.344Z,11.20
2018-03-23T01:27:52.224Z,10.33
2018-03-23T01:32:43.114Z,10.63
2018-03-23T01:37:34.794Z,11.30
2018-03-23T01:42:25.863Z,11.50
2018-03-23T01:47:16.772Z,11.00
2018-03-23T01:52:07.674Z,10.47
2018-03-23T01:56:58.574Z,10.87
2018-03-23T02:01:49.453Z,10.23
2018-03-23T02:06:40.338Z,9.17
2018-03-23T02:11:31.226Z,9.70
2018-03-23T02:16:22.178Z,8.80
2018-03-23T02:21:13.079Z,9.13
2018-03-23T02:26:03.984Z,11.47
2018-03-23T02:30:55.610Z,8.20
2018-03-23T02:35:46.511Z,9.47
2018-03-23T02:40:37.407Z,9.23
2018-03-23T02:45:28.351Z,8.20
2018-03-23T02:50:19.252Z,8.70
2018-03-23T02:55:10.152Z,9.10
2018-03-23T03:00:01.785Z,8.73
2018-03-23T03:04:52.677Z,9.97
2018-03-23T03:09:43.580Z,8.20
2018-03-23T03:14:34.477Z,10.40
2018-03-23T03:19:26.105Z,8.30
2018-03-23T03:24:17.008Z,8.33
2018-03-23T03:29:07.916Z,7.73
2018-03-23T03:33:58.819Z,9.60
2018-03-23T03:38:50.473Z,7.93
2018-03-23T03:43:42.102Z,9.60
2018-03-23T03:48:32.990Z,7.37
2018-03-23T03:53:23.877Z,8.67
2018-03-23T03:58:15.588Z,10.07
2018-03-23T04:03:06.498Z,8.00
2018-03-23T04:07:57.400Z,7.53
2018-03-23T04:12:48.416Z,8.70
2018-03-23T04:17:40.098Z,9.30
2018-03-23T04:22:31.194Z,8.07
2018-03-23T04:27:22.822Z,6.77
2018-03-23T04:32:13.710Z,8.17
2018-03-23T04:37:04.598Z,7.33
2018-03-23T04:41:56.260Z,8.00
2018-03-23T04:46:47.156Z,9.17
2018-03-23T04:51:38.807Z,9.43
2018-03-23T04:56:30.449Z,8.43
2018-03-23T05:01:21.433Z,8.10
2018-03-23T05:06:12.340Z,10.03
2018-03-23T05:11:03.234Z,9.30
2018-03-23T05:15:54.947Z,7.57
2018-03-23T05:20:45.946Z,8.23
2018-03-23T05:25:36.841Z,7.80
2018-03-23T05:30:27.740Z,8.00
2018-03-23T05:35:18.630Z,9.43
2018-03-23T05:40:09.531Z,7.20
2018-03-23T05:45:00.424Z,8.80
2018-03-23T05:49:52.076Z,7.50
2018-03-23T05:54:42.965Z,7.40
2018-03-23T05:59:33.900Z,8.57
2018-03-23T06:04:24.803Z,7.10
2018-03-23T06:09:15.694Z,6.93
2018-03-23T06:14:07.333Z,7.67
2018-03-23T06:18:58.988Z,7.20
2018-03-23T06:23:50.640Z,8.50
2018-03-23T06:28:41.780Z,8.23
2018-03-23T06:33:32.769Z,7.03
2018-03-23T06:38:23.598Z,7.57
2018-03-23T06:43:14.500Z,7.30
2018-03-23T06:48:05.393Z,15.40
2018-03-23T06:52:57.018Z,12.30
2018-03-23T06:57:47.927Z,9.07
2018-03-23T07:02:38.822Z,9.23
2018-03-23T07:07:30.476Z,7.23
2018-03-23T07:12:21.366Z,9.73
2018-03-23T07:17:12.273Z,8.03
2018-03-23T07:22:03.366Z,9.57
2018-03-23T07:26:54.268Z,9.27
2018-03-23T07:31:45.916Z,9.40
2018-03-23T07:36:37.620Z,9.17
2018-03-23T07:41:28.538Z,8.80
2018-03-23T07:46:19.449Z,11.93
2018-03-23T07:51:10.361Z,8.67
2018-03-23T07:56:01.272Z,12.67
2018-03-23T08:00:52.918Z,11.10
2018-03-23T08:05:44.584Z,9.40
2018-03-23T08:10:35.548Z,10.83
2018-03-23T08:15:26.525Z,11.03
2018-03-23T08:20:18.167Z,9.30
2018-03-23T08:25:09.798Z,11.67
2018-03-23T08:30:00.813Z,9.37
2018-03-23T08:34:51.736Z,9.13
2018-03-23T08:39:42.635Z,10.30
2018-03-23T08:44:33.640Z,10.30
2018-03-23T08:49:24.610Z,11.13
2018-03-23T08:54:15.498Z,7.73
2018-03-23T08:59:06.409Z,9.37
2018-03-23T09:03:57.298Z,11.00
2018-03-23T09:08:48.184Z,13.30
2018-03-23T09:13:39.073Z,10.83
2018-03-23T09:18:30.732Z,9.87
2018-03-23T09:23:21.632Z,10.97
2018-03-23T09:28:14.258Z,10.20
2018-03-23T09:33:05.184Z,9.03
2018-03-23T09:37:56.074Z,12.10
2018-03-23T09:42:47.702Z,10.20
2018-03-23T09:47:38.596Z,11.03
2018-03-23T09:52:29.490Z,12.43
2018-03-23T09:57:20.392Z,11.33
2018-03-23T10:02:11.288Z,13.33
2018-03-23T10:07:02.937Z,13.43
2018-03-23T10:11:53.826Z,13.00
2018-03-23T10:16:44.726Z,11.17
2018-03-23T10:21:36.364Z,17.90
2018-03-23T10:26:28.041Z,14.90
2018-03-23T10:31:18.939Z,12.67
2018-03-23T10:36:09.839Z,17.27
2018-03-23T10:41:00.744Z,16.30
2018-03-23T10:45:51.648Z,12.43
2018-03-23T10:50:43.288Z,13.70
2018-03-23T10:55:34.179Z,13.50
2018-03-23T11:00:31.195Z,12.10
2018-03-23T11:05:22.086Z,13.97
2018-03-23T11:10:12.988Z,14.57
2018-03-23T11:15:03.870Z,15.07
2018-03-23T11:19:54.764Z,16.67
2018-03-23T11:24:46.399Z,16.33
2018-03-23T11:29:37.307Z,16.50
2018-03-23T11:34:28.216Z,16.93
2018-03-23T11:39:19.313Z,21.53
2018-03-23T11:44:10.959Z,19.57
2018-03-23T11:49:02.595Z,12.40
2018-03-23T11:53:53.492Z,15.30
2018-03-23T11:58:44.378Z,13.37
2018-03-23T12:03:35.276Z,11.60
2018-03-23T12:08:26.170Z,16.03
2018-03-23T12:13:17.058Z,15.10
2018-03-23T12:18:07.962Z,15.27
2018-03-23T12:22:58.864Z,18.47
2018-03-23T12:27:49.749Z,16.80
2018-03-23T12:32:40.656Z,16.23
2018-03-23T12:37:31.546Z,18.00
2018-03-23T12:42:23.187Z,19.50
2018-03-23T12:47:14.087Z,20.10
2018-03-23T12:52:05.784Z,23.47
2018-03-23T12:56:57.442Z,21.50
2018-03-23T13:01:48.333Z,17.60
2018-03-23T13:06:39.249Z,26.13
2018-03-23T13:11:30.173Z,17.20
2018-03-23T13:16:21.079Z,19.60
2018-03-23T13:21:12.022Z,25.17
2018-03-23T13:26:02.922Z,19.20
2018-03-23T13:30:53.832Z,22.63
2018-03-23T13:35:44.751Z,21.07
2018-03-23T13:40:36.378Z,20.83
2018-03-23T13:45:27.279Z,22.23
2018-03-23T13:50:18.195Z,22.57
2018-03-23T13:55:09.984Z,22.03
2018-03-23T14:00:00.991Z,23.60
2018-03-23T14:04:51.912Z,21.73
2018-03-23T14:09:42.812Z,18.17
2018-03-23T14:14:34.454Z,17.20
2018-03-23T14:19:25.347Z,15.90
2018-03-23T14:24:16.247Z,16.60
2018-03-23T14:29:07.159Z,18.80
2018-03-23T14:33:58.804Z,18.67
2018-03-23T14:38:50.434Z,18.93
2018-03-23T14:43:41.436Z,21.50
2018-03-23T14:48:32.330Z,17.70
2018-03-23T14:53:23.965Z,15.70
2018-03-23T14:58:15.620Z,15.50
2018-03-23T15:03:06.509Z,17.00
2018-03-23T15:07:57.394Z,17.03
2018-03-23T15:12:49.105Z,16.20
2018-03-23T15:17:40.014Z,15.60
2018-03-23T15:22:30.930Z,14.50
2018-03-23T15:27:21.836Z,16.33
2018-03-23T15:32:12.726Z,16.90
2018-03-23T15:37:03.620Z,16.90
2018-03-23T15:41:54.554Z,15.60
2018-03-23T15:46:45.443Z,16.50
2018-03-23T15:51:37.077Z,15.87
2018-03-23T15:56:28.727Z,18.80
2018-03-23T16:01:20.444Z,21.00
2018-03-23T16:06:11.379Z,20.67
2018-03-23T16:11:02.662Z,19.50
2018-03-23T16:15:53.568Z,22.20
2018-03-23T16:20:45.213Z,16.30
2018-03-23T16:25:36.842Z,23.27
2018-03-23T16:30:28.550Z,25.07
2018-03-23T16:35:19.482Z,17.63
2018-03-23T16:40:10.387Z,18.30
2018-03-23T16:45:01.312Z,17.10
2018-03-23T16:49:52.205Z,22.00
2018-03-23T16:54:43.876Z,19.20
2018-03-23T16:59:34.784Z,17.40
2018-03-23T17:04:26.443Z,18.00
2018-03-23T17:09:18.088Z,17.97
2018-03-23T17:14:09.813Z,20.30
2018-03-23T17:19:00.697Z,18.33
2018-03-23T17:23:51.596Z,18.93
2018-03-23T17:28:43.229Z,17.60
2018-03-23T17:33:34.875Z,17.57
2018-03-23T17:38:25.771Z,21.63
2018-03-23T17:43:16.662Z,19.23
2018-03-23T17:48:07.563Z,19.27
2018-03-23T17:52:58.454Z,21.20
2018-03-23T17:57:49.359Z,16.57
2018-03-23T18:02:42.239Z,19.50
2018-03-23T18:07:33.191Z,18.87
2018-03-23T18:12:24.096Z,19.80
2018-03-23T18:17:14.985Z,21.10
2018-03-23T18:22:06.628Z,17.20
2018-03-23T18:26:58.338Z,22.77
2018-03-23T18:31:49.284Z,18.10
2018-03-23T18:36:40.187Z,21.70
2018-03-23T18:41:31.077Z,20.00
2018-03-23T18:46:21.977Z,22.80
2018-03-23T18:51:12.883Z,22.57
2018-03-23T18:56:03.792Z,18.90
2018-03-23T19:00:55.448Z,20.70
2018-03-23T19:05:46.346Z,17.30
2018-03-23T19:10:39.653Z,21.93
2018-03-23T19:15:31.321Z,21.77
2018-03-23T19:20:22.205Z,19.53
2018-03-23T19:25:13.130Z,19.60
2018-03-23T19:30:04.766Z,22.17
2018-03-23T19:34:55.664Z,24.10
2018-03-23T19:39:46.553Z,29.37
2018-03-23T19:44:37.531Z,22.37
2018-03-23T19:49:28.450Z,17.40
2018-03-23T19:54:19.400Z,23.40
2018-03-23T19:59:10.307Z,25.67
2018-03-23T20:04:01.322Z,20.30
2018-03-23T20:08:52.960Z,21.20
2018-03-23T20:13:50.870Z,22.17
2018-03-23T20:18:42.509Z,22.97
2018-03-23T20:23:33.402Z,25.90
2018-03-23T20:28:30.527Z,20.17
2018-03-23T20:33:21.422Z,25.17
2018-03-23T20:38:12.361Z,27.13
2018-03-23T20:43:03.286Z,25.70
2018-03-23T20:47:54.181Z,25.27
2018-03-23T20:52:45.144Z,26.90
2018-03-23T20:57:36.063Z,27.20
2018-03-23T21:02:26.969Z,25.27
2018-03-23T21:07:17.919Z,26.57
2018-03-23T21:12:08.816Z,27.20
2018-03-23T21:16:59.724Z,30.47
2018-03-23T21:21:51.376Z,24.40
2018-03-23T21:26:43.028Z,26.73
2018-03-23T21:31:34.661Z,23.50
2018-03-23T21:36:25.550Z,30.83
2018-03-23T21:41:16.437Z,23.63
2018-03-23T21:46:07.347Z,31.23
2018-03-23T21:50:58.252Z,30.03
2018-03-23T21:55:49.224Z,28.60
2018-03-23T22:00:40.118Z,28.60
2018-03-23T22:05:31.066Z,25.83
2018-03-23T22:10:21.984Z,29.43
2018-03-23T22:15:12.930Z,29.47
2018-03-23T22:20:03.818Z,32.23
2018-03-23T22:24:54.802Z,31.43
2018-03-23T22:29:45.712Z,27.93
2018-03-23T22:34:36.623Z,28.93
2018-03-23T22:39:27.510Z,30.27
2018-03-23T22:44:19.138Z,28.60
2018-03-23T22:49:10.036Z,28.30
2018-03-23T22:54:00.944Z,30.67
2018-03-23T22:58:51.842Z,24.93
2018-03-23T23:03:42.730Z,28.53
2018-03-23T23:08:33.625Z,33.33
2018-03-23T23:13:24.505Z,30.47
2018-03-23T23:18:15.402Z,30.07
2018-03-23T23:23:06.304Z,30.03
2018-03-23T23:27:57.213Z,25.57
2018-03-23T23:32:48.857Z,34.03
2018-03-23T23:37:39.762Z,31.30
2018-03-23T23:42:30.660Z,31.43
2018-03-23T23:47:21.560Z,34.37
2018-03-23T23:52:12.455Z,40.23
2018-03-23T23:57:04.097Z,33.80
